TimeCET,TemperatureF,Dew PointF,Humidity,Sea Level PressureIn,VisibilityMPH,Wind Direction,Wind SpeedMPH,Gust SpeedMPH,PrecipitationIn,Events,Conditions,WindDirDegrees,DateUTC
12:00 AM,19.4,17.6,93,30.15,5.0,Variable,3.5,-,N/A,,Unknown,0,2013-03-16 23:00:00
12:30 AM,17.6,15.8,93,30.15,5.0,ENE,4.6,-,N/A,,Unknown,60,2013-03-16 23:30:00
1:00 AM,21.2,19.4,93,30.15,5.0,ENE,5.8,-,N/A,,Unknown,70,2013-03-17 00:00:00
1:30 AM,21.2,19.4,93,30.15,5.0,East,4.6,-,N/A,,Unknown,90,2013-03-17 00:30:00
2:00 AM,21.2,17.6,86,30.15,5.0,ENE,8.1,-,N/A,,Partly Cloudy,70,2013-03-17 01:00:00
2:30 AM,21.2,19.4,93,30.15,5.0,ENE,6.9,-,N/A,,Unknown,70,2013-03-17 01:30:00
3:00 AM,21.2,17.6,86,30.15,5.0,East,5.8,-,N/A,,Unknown,80,2013-03-17 02:00:00
3:30 AM,19.4,15.8,86,30.15,5.0,Variable,3.5,-,N/A,,Unknown,0,2013-03-17 02:30:00
4:00 AM,19.4,17.6,93,30.15,5.0,East,5.8,-,N/A,,Unknown,80,2013-03-17 03:00:00
4:30 AM,19.4,15.8,86,30.15,5.0,East,5.8,-,N/A,,Unknown,90,2013-03-17 03:30:00
5:00 AM,19.4,15.8,86,30.15,5.0,Variable,3.5,-,N/A,,Unknown,0,2013-03-17 04:00:00
5:30 AM,19.4,15.8,86,30.15,5.0,Variable,2.3,-,N/A,,Unknown,0,2013-03-17 04:30:00
6:00 AM,15.8,12.2,86,30.15,3.7,Variable,2.3,-,N/A,,Unknown,0,2013-03-17 05:00:00
6:30 AM,15.8,14.0,93,30.15,3.7,East,4.6,-,N/A,,Unknown,90,2013-03-17 05:30:00
7:00 AM,19.4,15.8,86,30.15,3.7,East,5.8,-,N/A,,Unknown,100,2013-03-17 06:00:00
7:30 AM,21.2,17.6,86,30.15,3.7,ESE,8.1,-,N/A,,Unknown,110,2013-03-17 06:30:00
8:00 AM,23.0,17.6,80,30.15,3.7,ESE,8.1,-,N/A,,Unknown,110,2013-03-17 07:00:00
8:30 AM,23.0,19.4,86,30.15,3.7,ESE,6.9,-,N/A,,Unknown,110,2013-03-17 07:30:00
9:00 AM,24.8,21.2,86,30.15,4.3,East,6.9,-,N/A,,Unknown,100,2013-03-17 08:00:00
9:30 AM,26.6,21.2,80,30.15,4.3,ESE,8.1,-,N/A,,Unknown,110,2013-03-17 08:30:00
10:00 AM,28.4,21.2,74,30.15,5.0,ESE,9.2,-,N/A,,Unknown,110,2013-03-17 09:00:00
10:30 AM,30.2,21.2,69,30.15,5.0,East,11.5,-,N/A,,Unknown,90,2013-03-17 09:30:00
11:00 AM,30.2,21.2,69,30.15,6.2,ESE,10.4,-,N/A,,Partly Cloudy,110,2013-03-17 10:00:00
11:30 AM,32.0,21.2,64,30.15,6.2,ESE,11.5,-,N/A,,Scattered Clouds,120,2013-03-17 10:30:00
12:00 PM,33.8,12.2,41,30.15,-9999.0,South,16.1,-,N/A,,Clear,170,2013-03-17 11:00:00
12:30 PM,33.8,12.2,41,30.12,6.2,SSE,15.0,-,N/A,,Partly Cloudy,150,2013-03-17 11:30:00
1:00 PM,33.8,12.2,41,30.12,6.2,South,16.1,-,N/A,,Partly Cloudy,170,2013-03-17 12:00:00
1:30 PM,35.6,17.6,48,30.12,6.2,SSE,15.0,-,N/A,,Partly Cloudy,150,2013-03-17 12:30:00
2:00 PM,33.8,19.4,56,30.09,6.2,SE,15.0,-,N/A,,Partly Cloudy,130,2013-03-17 13:00:00
2:30 PM,33.8,19.4,56,30.09,6.2,ESE,17.3,-,N/A,,Partly Cloudy,110,2013-03-17 13:30:00
3:00 PM,32.0,19.4,60,30.06,6.2,ESE,16.1,-,N/A,,Mostly Cloudy,110,2013-03-17 14:00:00
3:30 PM,32.0,19.4,60,30.06,6.2,ESE,16.1,-,N/A,,Mostly Cloudy,110,2013-03-17 14:30:00
4:00 PM,32.0,19.4,60,30.06,6.2,ESE,15.0,-,N/A,,Mostly Cloudy,110,2013-03-17 15:00:00
4:30 PM,32.0,19.4,60,30.06,6.2,ESE,16.1,-,N/A,,Mostly Cloudy,110,2013-03-17 15:30:00
5:00 PM,32.0,17.6,55,30.06,6.2,ESE,15.0,-,N/A,,Mostly Cloudy,110,2013-03-17 16:00:00
5:30 PM,32.0,17.6,55,30.06,6.2,ESE,16.1,-,N/A,,Mostly Cloudy,110,2013-03-17 16:30:00
6:00 PM,30.2,19.4,64,30.06,6.2,ESE,12.7,-,N/A,,Mostly Cloudy,110,2013-03-17 17:00:00
6:30 PM,30.2,19.4,64,30.06,6.2,ESE,12.7,-,N/A,,Mostly Cloudy,110,2013-03-17 17:30:00
7:00 PM,30.2,19.4,64,30.06,6.2,ESE,11.5,-,N/A,,Overcast,110,2013-03-17 18:00:00
7:30 PM,30.2,19.4,64,30.06,6.2,ESE,12.7,-,N/A,,Overcast,110,2013-03-17 18:30:00
8:00 PM,30.2,19.4,64,30.06,-9999.0,ESE,12.7,-,N/A,,Clear,110,2013-03-17 19:00:00
8:30 PM,30.2,19.4,64,30.04,-9999.0,ESE,15.0,-,N/A,,Clear,110,2013-03-17 19:30:00
9:00 PM,28.4,19.4,69,30.04,-9999.0,ESE,13.8,-,N/A,,Clear,110,2013-03-17 20:00:00
9:30 PM,28.4,19.4,69,30.04,-9999.0,East,12.7,-,N/A,,Clear,100,2013-03-17 20:30:00
10:00 PM,28.4,19.4,69,30.04,-9999.0,East,12.7,-,N/A,,Clear,100,2013-03-17 21:00:00
10:30 PM,28.4,17.6,64,30.04,-9999.0,East,15.0,-,N/A,,Clear,90,2013-03-17 21:30:00
11:00 PM,28.4,17.6,64,30.01,-9999.0,East,15.0,-,N/A,,Clear,100,2013-03-17 22:00:00
11:30 PM,28.4,17.6,64,30.01,-9999.0,East,13.8,-,N/A,,Clear,90,2013-03-17 22:30:00